sensor_id;sensor_type;location;lat;lon;timestamp;temperature;humidity
84296;SHT31;74464;42.688;23.304;2023-12-20T00:01:37;0.28;89.26
84296;SHT31;74464;42.688;23.304;2023-12-20T00:04:04;0.46;88.64
84296;SHT31;74464;42.688;23.304;2023-12-20T00:06:30;0.64;87.52
84296;SHT31;74464;42.688;23.304;2023-12-20T00:08:56;0.61;87.28
84296;SHT31;74464;42.688;23.304;2023-12-20T00:11:23;0.67;86.89
84296;SHT31;74464;42.688;23.304;2023-12-20T00:13:51;0.67;86.81
84296;SHT31;74464;42.688;23.304;2023-12-20T00:16:17;0.73;86.83
84296;SHT31;74464;42.688;23.304;2023-12-20T00:18:44;0.66;87.10
84296;SHT31;74464;42.688;23.304;2023-12-20T00:21:11;0.73;86.95
84296;SHT31;74464;42.688;23.304;2023-12-20T00:23:37;0.80;86.82
84296;SHT31;74464;42.688;23.304;2023-12-20T00:26:05;0.80;86.37
84296;SHT31;74464;42.688;23.304;2023-12-20T00:28:31;0.77;86.27
84296;SHT31;74464;42.688;23.304;2023-12-20T00:30:57;0.71;86.17
84296;SHT31;74464;42.688;23.304;2023-12-20T00:33:24;0.76;86.15
84296;SHT31;74464;42.688;23.304;2023-12-20T00:35:50;0.70;86.20
84296;SHT31;74464;42.688;23.304;2023-12-20T00:38:15;0.70;86.16
84296;SHT31;74464;42.688;23.304;2023-12-20T00:40:41;0.69;86.12
84296;SHT31;74464;42.688;23.304;2023-12-20T00:43:07;0.66;86.14
84296;SHT31;74464;42.688;23.304;2023-12-20T00:45:36;0.70;86.01
84296;SHT31;74464;42.688;23.304;2023-12-20T00:48:04;0.70;86.33
84296;SHT31;74464;42.688;23.304;2023-12-20T00:50:32;0.63;86.52
84296;SHT31;74464;42.688;23.304;2023-12-20T00:53:03;0.67;86.24
84296;SHT31;74464;42.688;23.304;2023-12-20T00:55:29;0.67;86.01
84296;SHT31;74464;42.688;23.304;2023-12-20T00:57:54;0.70;85.74
84296;SHT31;74464;42.688;23.304;2023-12-20T01:00:20;0.64;85.71
84296;SHT31;74464;42.688;23.304;2023-12-20T01:02:46;0.63;85.55
84296;SHT31;74464;42.688;23.304;2023-12-20T01:05:14;0.48;85.84
84296;SHT31;74464;42.688;23.304;2023-12-20T01:07:40;0.54;86.51
84296;SHT31;74464;42.688;23.304;2023-12-20T01:10:06;0.24;87.28
84296;SHT31;74464;42.688;23.304;2023-12-20T01:12:31;0.36;87.63
84296;SHT31;74464;42.688;23.304;2023-12-20T01:14:57;0.43;87.31
84296;SHT31;74464;42.688;23.304;2023-12-20T01:17:24;0.46;87.07
84296;SHT31;74464;42.688;23.304;2023-12-20T01:19:49;0.53;86.92
84296;SHT31;74464;42.688;23.304;2023-12-20T01:22:15;0.53;86.48
84296;SHT31;74464;42.688;23.304;2023-12-20T01:24:40;0.45;86.64
84296;SHT31;74464;42.688;23.304;2023-12-20T01:27:06;0.41;86.62
84296;SHT31;74464;42.688;23.304;2023-12-20T01:29:32;0.42;86.37
84296;SHT31;74464;42.688;23.304;2023-12-20T01:31:57;0.38;86.51
84296;SHT31;74464;42.688;23.304;2023-12-20T01:34:23;0.28;86.28
84296;SHT31;74464;42.688;23.304;2023-12-20T01:36:48;0.29;86.82
84296;SHT31;74464;42.688;23.304;2023-12-20T01:39:14;0.19;86.55
84296;SHT31;74464;42.688;23.304;2023-12-20T01:41:41;0.29;86.18
84296;SHT31;74464;42.688;23.304;2023-12-20T01:44:06;0.26;85.65
84296;SHT31;74464;42.688;23.304;2023-12-20T01:46:36;0.05;85.86
84296;SHT31;74464;42.688;23.304;2023-12-20T01:49:02;-0.02;86.69
84296;SHT31;74464;42.688;23.304;2023-12-20T01:51:28;0.01;86.56
84296;SHT31;74464;42.688;23.304;2023-12-20T01:53:55;-0.05;86.64
84296;SHT31;74464;42.688;23.304;2023-12-20T01:56:22;-0.10;87.35
84296;SHT31;74464;42.688;23.304;2023-12-20T01:58:48;-0.30;87.76
84296;SHT31;74464;42.688;23.304;2023-12-20T02:01:14;-0.40;88.43
84296;SHT31;74464;42.688;23.304;2023-12-20T02:03:42;-0.64;89.10
84296;SHT31;74464;42.688;23.304;2023-12-20T02:06:08;-0.60;89.25
84296;SHT31;74464;42.688;23.304;2023-12-20T02:08:35;-0.30;88.38
84296;SHT31;74464;42.688;23.304;2023-12-20T02:11:01;-0.45;88.31
84296;SHT31;74464;42.688;23.304;2023-12-20T02:13:27;-0.47;88.68
84296;SHT31;74464;42.688;23.304;2023-12-20T02:15:53;-0.31;88.32
84296;SHT31;74464;42.688;23.304;2023-12-20T02:18:19;-0.37;88.36
84296;SHT31;74464;42.688;23.304;2023-12-20T02:20:45;-0.29;88.04
84296;SHT31;74464;42.688;23.304;2023-12-20T02:23:11;-0.23;88.05
84296;SHT31;74464;42.688;23.304;2023-12-20T02:25:36;-0.19;87.28
84296;SHT31;74464;42.688;23.304;2023-12-20T02:28:03;-0.19;87.84
84296;SHT31;74464;42.688;23.304;2023-12-20T02:30:29;-0.19;87.84
84296;SHT31;74464;42.688;23.304;2023-12-20T02:32:56;-0.23;87.57
84296;SHT31;74464;42.688;23.304;2023-12-20T02:35:21;-0.50;88.34
84296;SHT31;74464;42.688;23.304;2023-12-20T02:37:47;-0.57;88.45
84296;SHT31;74464;42.688;23.304;2023-12-20T02:40:13;-0.79;89.20
84296;SHT31;74464;42.688;23.304;2023-12-20T02:42:38;-0.51;88.71
84296;SHT31;74464;42.688;23.304;2023-12-20T02:45:04;-0.40;88.12
84296;SHT31;74464;42.688;23.304;2023-12-20T02:47:31;-0.41;87.91
84296;SHT31;74464;42.688;23.304;2023-12-20T02:49:57;-0.71;87.95
84296;SHT31;74464;42.688;23.304;2023-12-20T02:52:23;-0.88;88.58
84296;SHT31;74464;42.688;23.304;2023-12-20T02:54:49;-0.86;88.08
84296;SHT31;74464;42.688;23.304;2023-12-20T02:57:15;-0.74;87.92
84296;SHT31;74464;42.688;23.304;2023-12-20T02:59:40;-0.56;87.38
84296;SHT31;74464;42.688;23.304;2023-12-20T03:02:06;-0.79;87.22
84296;SHT31;74464;42.688;23.304;2023-12-20T03:04:32;-1.06;88.01
84296;SHT31;74464;42.688;23.304;2023-12-20T03:06:57;-1.14;88.91
84296;SHT31;74464;42.688;23.304;2023-12-20T03:09:23;-1.10;89.14
84296;SHT31;74464;42.688;23.304;2023-12-20T03:11:48;-1.05;89.28
84296;SHT31;74464;42.688;23.304;2023-12-20T03:14:15;-1.26;89.62
84296;SHT31;74464;42.688;23.304;2023-12-20T03:16:41;-1.26;89.80
84296;SHT31;74464;42.688;23.304;2023-12-20T03:19:06;-1.47;90.34
84296;SHT31;74464;42.688;23.304;2023-12-20T03:21:34;-1.26;90.33
84296;SHT31;74464;42.688;23.304;2023-12-20T03:24:01;-1.16;89.79
84296;SHT31;74464;42.688;23.304;2023-12-20T03:26:26;-1.37;89.77
84296;SHT31;74464;42.688;23.304;2023-12-20T03:28:52;-1.50;90.61
84296;SHT31;74464;42.688;23.304;2023-12-20T03:31:18;-1.58;90.76
84296;SHT31;74464;42.688;23.304;2023-12-20T03:33:43;-1.41;90.95
84296;SHT31;74464;42.688;23.304;2023-12-20T03:36:09;-1.72;91.25
84296;SHT31;74464;42.688;23.304;2023-12-20T03:38:36;-1.74;91.64
84296;SHT31;74464;42.688;23.304;2023-12-20T03:41:01;-1.99;92.32
84296;SHT31;74464;42.688;23.304;2023-12-20T03:43:27;-1.96;92.53
84296;SHT31;74464;42.688;23.304;2023-12-20T03:45:53;-2.02;92.63
84296;SHT31;74464;42.688;23.304;2023-12-20T03:48:18;-1.83;92.51
84296;SHT31;74464;42.688;23.304;2023-12-20T03:50:44;-1.61;92.25
84296;SHT31;74464;42.688;23.304;2023-12-20T03:53:11;-1.47;92.01
84296;SHT31;74464;42.688;23.304;2023-12-20T03:55:36;-1.46;91.31
84296;SHT31;74464;42.688;23.304;2023-12-20T03:58:02;-1.43;90.93
84296;SHT31;74464;42.688;23.304;2023-12-20T04:00:29;-1.40;90.92
84296;SHT31;74464;42.688;23.304;2023-12-20T04:02:54;-1.58;90.66
84296;SHT31;74464;42.688;23.304;2023-12-20T04:05:20;-1.93;91.18
84296;SHT31;74464;42.688;23.304;2023-12-20T04:07:46;-1.93;91.48
84296;SHT31;74464;42.688;23.304;2023-12-20T04:10:11;-2.10;92.15
84296;SHT31;74464;42.688;23.304;2023-12-20T04:12:37;-2.34;93.24
84296;SHT31;74464;42.688;23.304;2023-12-20T04:15:03;-2.17;93.08
84296;SHT31;74464;42.688;23.304;2023-12-20T04:17:34;-2.33;93.37
84296;SHT31;74464;42.688;23.304;2023-12-20T04:20:01;-2.16;93.27
84296;SHT31;74464;42.688;23.304;2023-12-20T04:22:27;-1.96;92.89
84296;SHT31;74464;42.688;23.304;2023-12-20T04:24:53;-1.81;92.67
84296;SHT31;74464;42.688;23.304;2023-12-20T04:27:18;-1.74;92.39
84296;SHT31;74464;42.688;23.304;2023-12-20T04:29:44;-1.61;92.17
84296;SHT31;74464;42.688;23.304;2023-12-20T04:32:10;-1.57;91.90
84296;SHT31;74464;42.688;23.304;2023-12-20T04:34:36;-1.46;91.58
84296;SHT31;74464;42.688;23.304;2023-12-20T04:37:02;-1.86;91.07
84296;SHT31;74464;42.688;23.304;2023-12-20T04:39:27;-2.19;91.97
84296;SHT31;74464;42.688;23.304;2023-12-20T04:41:53;-2.36;92.98
84296;SHT31;74464;42.688;23.304;2023-12-20T04:44:21;-2.45;93.73
84296;SHT31;74464;42.688;23.304;2023-12-20T04:46:48;-2.48;93.98
84296;SHT31;74464;42.688;23.304;2023-12-20T04:49:13;-2.22;93.75
84296;SHT31;74464;42.688;23.304;2023-12-20T04:51:39;-2.42;94.12
84296;SHT31;74464;42.688;23.304;2023-12-20T04:54:05;-2.17;93.85
84296;SHT31;74464;42.688;23.304;2023-12-20T04:56:31;-1.97;93.57
84296;SHT31;74464;42.688;23.304;2023-12-20T04:58:57;-2.06;93.54
84296;SHT31;74464;42.688;23.304;2023-12-20T05:01:22;-2.14;93.98
84296;SHT31;74464;42.688;23.304;2023-12-20T05:03:49;-2.00;93.68
84296;SHT31;74464;42.688;23.304;2023-12-20T05:06:16;-2.11;93.77
84296;SHT31;74464;42.688;23.304;2023-12-20T05:08:41;-2.27;94.09
84296;SHT31;74464;42.688;23.304;2023-12-20T05:11:07;-2.23;94.36
84296;SHT31;74464;42.688;23.304;2023-12-20T05:13:33;-1.82;94.18
84296;SHT31;74464;42.688;23.304;2023-12-20T05:15:58;-1.68;93.93
84296;SHT31;74464;42.688;23.304;2023-12-20T05:18:24;-1.58;93.92
84296;SHT31;74464;42.688;23.304;2023-12-20T05:20:50;-1.50;93.54
84296;SHT31;74464;42.688;23.304;2023-12-20T05:23:17;-1.76;93.43
84296;SHT31;74464;42.688;23.304;2023-12-20T05:25:42;-1.93;93.86
84296;SHT31;74464;42.688;23.304;2023-12-20T05:28:26;-2.02;94.04
84296;SHT31;74464;42.688;23.304;2023-12-20T05:31:06;-1.65;93.70
84296;SHT31;74464;42.688;23.304;2023-12-20T05:33:34;-1.54;93.51
84296;SHT31;74464;42.688;23.304;2023-12-20T05:36:00;-1.36;93.17
84296;SHT31;74464;42.688;23.304;2023-12-20T05:38:26;-1.26;91.83
84296;SHT31;74464;42.688;23.304;2023-12-20T05:40:51;-1.34;91.22
84296;SHT31;74464;42.688;23.304;2023-12-20T05:43:17;-1.58;91.54
84296;SHT31;74464;42.688;23.304;2023-12-20T05:45:43;-1.64;92.27
84296;SHT31;74464;42.688;23.304;2023-12-20T05:48:09;-1.67;92.47
84296;SHT31;74464;42.688;23.304;2023-12-20T05:50:34;-1.40;92.22
84296;SHT31;74464;42.688;23.304;2023-12-20T05:53:00;-1.47;91.49
84296;SHT31;74464;42.688;23.304;2023-12-20T05:55:26;-1.46;91.44
84296;SHT31;74464;42.688;23.304;2023-12-20T05:57:52;-1.65;91.62
84296;SHT31;74464;42.688;23.304;2023-12-20T06:00:18;-1.52;91.93
84296;SHT31;74464;42.688;23.304;2023-12-20T06:02:44;-1.62;92.17
84296;SHT31;74464;42.688;23.304;2023-12-20T06:05:09;-1.52;91.80
84296;SHT31;74464;42.688;23.304;2023-12-20T06:07:35;-1.90;92.25
84296;SHT31;74464;42.688;23.304;2023-12-20T06:10:01;-2.09;92.98
84296;SHT31;74464;42.688;23.304;2023-12-20T06:12:26;-2.13;93.69
84296;SHT31;74464;42.688;23.304;2023-12-20T06:14:54;-1.90;93.67
84296;SHT31;74464;42.688;23.304;2023-12-20T06:17:20;-1.85;93.40
84296;SHT31;74464;42.688;23.304;2023-12-20T06:19:46;-1.81;93.30
84296;SHT31;74464;42.688;23.304;2023-12-20T06:22:14;-1.85;92.93
84296;SHT31;74464;42.688;23.304;2023-12-20T06:24:40;-1.88;93.28
84296;SHT31;74464;42.688;23.304;2023-12-20T06:27:05;-1.92;92.94
84296;SHT31;74464;42.688;23.304;2023-12-20T06:29:31;-1.99;93.09
84296;SHT31;74464;42.688;23.304;2023-12-20T06:31:57;-1.93;93.09
84296;SHT31;74464;42.688;23.304;2023-12-20T06:34:24;-1.81;92.86
84296;SHT31;74464;42.688;23.304;2023-12-20T06:36:50;-1.64;92.54
84296;SHT31;74464;42.688;23.304;2023-12-20T06:39:17;-1.57;92.17
84296;SHT31;74464;42.688;23.304;2023-12-20T06:41:45;-1.78;92.05
84296;SHT31;74464;42.688;23.304;2023-12-20T06:44:10;-2.00;92.45
84296;SHT31;74464;42.688;23.304;2023-12-20T06:46:36;-2.02;92.61
84296;SHT31;74464;42.688;23.304;2023-12-20T06:49:01;-1.89;92.46
84296;SHT31;74464;42.688;23.304;2023-12-20T06:51:29;-1.83;92.63
84296;SHT31;74464;42.688;23.304;2023-12-20T06:53:56;-1.93;92.62
84296;SHT31;74464;42.688;23.304;2023-12-20T06:56:21;-1.90;92.65
84296;SHT31;74464;42.688;23.304;2023-12-20T06:58:49;-1.74;92.59
84296;SHT31;74464;42.688;23.304;2023-12-20T07:01:15;-1.43;92.10
84296;SHT31;74464;42.688;23.304;2023-12-20T07:03:41;-1.46;91.55
84296;SHT31;74464;42.688;23.304;2023-12-20T07:06:07;-1.39;91.16
84296;SHT31;74464;42.688;23.304;2023-12-20T07:08:33;-1.24;91.01
84296;SHT31;74464;42.688;23.304;2023-12-20T07:10:59;-1.06;90.66
84296;SHT31;74464;42.688;23.304;2023-12-20T07:13:26;-0.81;89.99
84296;SHT31;74464;42.688;23.304;2023-12-20T07:15:51;-0.96;89.96
84296;SHT31;74464;42.688;23.304;2023-12-20T07:18:17;-1.26;89.34
84296;SHT31;74464;42.688;23.304;2023-12-20T07:20:43;-1.31;90.44
84296;SHT31;74464;42.688;23.304;2023-12-20T07:23:09;-1.36;90.98
84296;SHT31;74464;42.688;23.304;2023-12-20T07:25:34;-1.07;91.02
84296;SHT31;74464;42.688;23.304;2023-12-20T07:28:00;-1.17;90.64
84296;SHT31;74464;42.688;23.304;2023-12-20T07:30:26;-1.29;91.06
84296;SHT31;74464;42.688;23.304;2023-12-20T07:32:51;-0.88;91.11
84296;SHT31;74464;42.688;23.304;2023-12-20T07:35:19;-0.97;89.99
84296;SHT31;74464;42.688;23.304;2023-12-20T07:37:44;-1.34;91.16
84296;SHT31;74464;42.688;23.304;2023-12-20T07:40:10;-1.41;91.83
84296;SHT31;74464;42.688;23.304;2023-12-20T07:42:36;-1.36;92.35
84296;SHT31;74464;42.688;23.304;2023-12-20T07:45:02;-1.33;92.70
84296;SHT31;74464;42.688;23.304;2023-12-20T07:47:30;-1.14;92.55
84296;SHT31;74464;42.688;23.304;2023-12-20T07:49:55;-1.24;92.04
84296;SHT31;74464;42.688;23.304;2023-12-20T07:52:21;-1.17;92.24
84296;SHT31;74464;42.688;23.304;2023-12-20T07:54:52;-0.99;91.87
84296;SHT31;74464;42.688;23.304;2023-12-20T07:57:19;-0.92;91.10
84296;SHT31;74464;42.688;23.304;2023-12-20T07:59:45;-1.14;91.12
84296;SHT31;74464;42.688;23.304;2023-12-20T08:02:13;-1.23;91.77
84296;SHT31;74464;42.688;23.304;2023-12-20T08:04:39;-1.33;92.38
84296;SHT31;74464;42.688;23.304;2023-12-20T08:07:04;-1.44;92.83
84296;SHT31;74464;42.688;23.304;2023-12-20T08:09:30;-1.46;93.11
84296;SHT31;74464;42.688;23.304;2023-12-20T08:11:57;-1.24;93.31
84296;SHT31;74464;42.688;23.304;2023-12-20T08:14:24;-0.82;92.77
84296;SHT31;74464;42.688;23.304;2023-12-20T08:16:50;-0.95;91.85
84296;SHT31;74464;42.688;23.304;2023-12-20T08:19:16;-0.95;91.45
84296;SHT31;74464;42.688;23.304;2023-12-20T08:21:42;-0.78;91.49
84296;SHT31;74464;42.688;23.304;2023-12-20T08:24:08;-0.45;90.98
84296;SHT31;74464;42.688;23.304;2023-12-20T08:26:33;-0.50;89.49
84296;SHT31;74464;42.688;23.304;2023-12-20T08:29:00;-0.44;90.13
84296;SHT31;74464;42.688;23.304;2023-12-20T08:31:26;-0.05;89.07
84296;SHT31;74464;42.688;23.304;2023-12-20T08:33:52;-0.01;88.15
84296;SHT31;74464;42.688;23.304;2023-12-20T08:36:19;-0.24;88.86
84296;SHT31;74464;42.688;23.304;2023-12-20T08:38:47;0.16;87.76
84296;SHT31;74464;42.688;23.304;2023-12-20T08:41:13;0.25;87.19
84296;SHT31;74464;42.688;23.304;2023-12-20T08:43:39;0.18;87.28
84296;SHT31;74464;42.688;23.304;2023-12-20T08:46:08;0.24;87.22
84296;SHT31;74464;42.688;23.304;2023-12-20T08:48:35;0.41;87.42
84296;SHT31;74464;42.688;23.304;2023-12-20T08:51:00;0.50;86.00
84296;SHT31;74464;42.688;23.304;2023-12-20T08:53:26;0.46;85.90
84296;SHT31;74464;42.688;23.304;2023-12-20T08:55:52;0.38;86.48
84296;SHT31;74464;42.688;23.304;2023-12-20T08:58:18;0.30;86.50
84296;SHT31;74464;42.688;23.304;2023-12-20T09:00:44;0.42;86.50
84296;SHT31;74464;42.688;23.304;2023-12-20T09:03:10;0.29;86.50
84296;SHT31;74464;42.688;23.304;2023-12-20T09:05:36;0.36;86.64
84296;SHT31;74464;42.688;23.304;2023-12-20T09:08:01;0.50;86.49
84296;SHT31;74464;42.688;23.304;2023-12-20T09:10:27;0.66;86.21
84296;SHT31;74464;42.688;23.304;2023-12-20T09:12:53;0.83;85.40
84296;SHT31;74464;42.688;23.304;2023-12-20T09:15:26;1.02;84.78
84296;SHT31;74464;42.688;23.304;2023-12-20T09:17:53;0.46;85.25
84296;SHT31;74464;42.688;23.304;2023-12-20T09:20:19;0.35;86.80
84296;SHT31;74464;42.688;23.304;2023-12-20T09:22:45;0.64;86.47
84296;SHT31;74464;42.688;23.304;2023-12-20T09:25:10;0.80;84.54
84296;SHT31;74464;42.688;23.304;2023-12-20T09:27:39;0.74;85.11
84296;SHT31;74464;42.688;23.304;2023-12-20T09:30:05;0.87;85.13
84296;SHT31;74464;42.688;23.304;2023-12-20T09:32:32;0.92;84.43
84296;SHT31;74464;42.688;23.304;2023-12-20T09:34:57;1.01;83.69
84296;SHT31;74464;42.688;23.304;2023-12-20T09:37:28;1.09;83.56
84296;SHT31;74464;42.688;23.304;2023-12-20T09:39:54;1.16;83.41
84296;SHT31;74464;42.688;23.304;2023-12-20T09:43:03;1.11;83.60
84296;SHT31;74464;42.688;23.304;2023-12-20T09:45:30;1.33;83.11
84296;SHT31;74464;42.688;23.304;2023-12-20T09:47:57;1.52;82.20
84296;SHT31;74464;42.688;23.304;2023-12-20T09:50:23;1.78;81.67
84296;SHT31;74464;42.688;23.304;2023-12-20T09:52:50;1.95;80.26
84296;SHT31;74464;42.688;23.304;2023-12-20T09:55:20;1.93;79.73
84296;SHT31;74464;42.688;23.304;2023-12-20T09:57:47;1.66;81.08
84296;SHT31;74464;42.688;23.304;2023-12-20T10:00:14;1.90;80.90
84296;SHT31;74464;42.688;23.304;2023-12-20T10:02:56;1.93;79.82
84296;SHT31;74464;42.688;23.304;2023-12-20T10:05:30;1.85;79.56
84296;SHT31;74464;42.688;23.304;2023-12-20T10:07:56;2.08;79.47
84296;SHT31;74464;42.688;23.304;2023-12-20T10:10:23;2.30;78.81
84296;SHT31;74464;42.688;23.304;2023-12-20T10:13:08;2.52;78.30
84296;SHT31;74464;42.688;23.304;2023-12-20T10:15:37;2.60;77.99
84296;SHT31;74464;42.688;23.304;2023-12-20T10:18:05;2.57;76.87
84296;SHT31;74464;42.688;23.304;2023-12-20T10:20:31;2.54;77.43
84296;SHT31;74464;42.688;23.304;2023-12-20T10:22:58;2.50;77.37
84296;SHT31;74464;42.688;23.304;2023-12-20T10:25:24;2.56;77.20
84296;SHT31;74464;42.688;23.304;2023-12-20T10:28:10;2.56;77.24
84296;SHT31;74464;42.688;23.304;2023-12-20T10:30:40;2.30;78.39
84296;SHT31;74464;42.688;23.304;2023-12-20T10:33:07;2.46;78.24
84296;SHT31;74464;42.688;23.304;2023-12-20T10:35:34;2.64;78.01
84296;SHT31;74464;42.688;23.304;2023-12-20T10:38:04;2.81;76.88
84296;SHT31;74464;42.688;23.304;2023-12-20T10:40:31;2.83;76.60
84296;SHT31;74464;42.688;23.304;2023-12-20T10:42:59;2.88;76.92
84296;SHT31;74464;42.688;23.304;2023-12-20T10:45:26;2.91;76.61
84296;SHT31;74464;42.688;23.304;2023-12-20T10:47:53;2.80;77.01
84296;SHT31;74464;42.688;23.304;2023-12-20T10:50:19;2.87;76.88
84296;SHT31;74464;42.688;23.304;2023-12-20T10:52:47;2.68;77.60
84296;SHT31;74464;42.688;23.304;2023-12-20T10:55:13;2.65;77.60
84296;SHT31;74464;42.688;23.304;2023-12-20T10:57:39;2.65;77.63
84296;SHT31;74464;42.688;23.304;2023-12-20T11:00:11;2.65;77.32
84296;SHT31;74464;42.688;23.304;2023-12-20T11:02:40;2.56;77.75
84296;SHT31;74464;42.688;23.304;2023-12-20T11:13:26;2.39;78.68
84296;SHT31;74464;42.688;23.304;2023-12-20T11:15:53;2.42;78.31
84296;SHT31;74464;42.688;23.304;2023-12-20T11:18:19;2.30;79.10
84296;SHT31;74464;42.688;23.304;2023-12-20T11:20:45;2.33;78.96
84296;SHT31;74464;42.688;23.304;2023-12-20T11:23:11;2.37;79.15
84296;SHT31;74464;42.688;23.304;2023-12-20T11:26:07;2.37;79.23
84296;SHT31;74464;42.688;23.304;2023-12-20T11:28:32;2.36;79.38
84296;SHT31;74464;42.688;23.304;2023-12-20T11:31:00;2.43;79.37
84296;SHT31;74464;42.688;23.304;2023-12-20T11:33:32;2.37;79.51
84296;SHT31;74464;42.688;23.304;2023-12-20T11:36:01;2.29;79.92
84296;SHT31;74464;42.688;23.304;2023-12-20T11:38:38;2.29;80.01
84296;SHT31;74464;42.688;23.304;2023-12-20T11:41:06;2.33;79.99
84296;SHT31;74464;42.688;23.304;2023-12-20T11:43:32;2.40;80.30
84296;SHT31;74464;42.688;23.304;2023-12-20T11:46:09;2.61;79.94
84296;SHT31;74464;42.688;23.304;2023-12-20T11:48:37;2.80;79.55
84296;SHT31;74464;42.688;23.304;2023-12-20T11:51:13;2.94;78.99
84296;SHT31;74464;42.688;23.304;2023-12-20T11:53:40;2.94;78.39
84296;SHT31;74464;42.688;23.304;2023-12-20T11:56:06;2.87;78.94
84296;SHT31;74464;42.688;23.304;2023-12-20T11:58:33;2.84;78.92
84296;SHT31;74464;42.688;23.304;2023-12-20T12:00:59;2.88;79.24
84296;SHT31;74464;42.688;23.304;2023-12-20T12:03:25;3.15;78.98
84296;SHT31;74464;42.688;23.304;2023-12-20T12:05:51;3.30;78.30
84296;SHT31;74464;42.688;23.304;2023-12-20T12:08:17;3.54;77.41
84296;SHT31;74464;42.688;23.304;2023-12-20T12:10:47;3.63;76.86
84296;SHT31;74464;42.688;23.304;2023-12-20T12:13:13;3.67;76.67
84296;SHT31;74464;42.688;23.304;2023-12-20T12:15:42;3.71;76.92
84296;SHT31;74464;42.688;23.304;2023-12-20T12:18:09;3.60;76.92
84296;SHT31;74464;42.688;23.304;2023-12-20T12:20:35;3.49;77.60
84296;SHT31;74464;42.688;23.304;2023-12-20T12:23:03;3.50;77.57
84296;SHT31;74464;42.688;23.304;2023-12-20T12:25:30;3.66;77.36
84296;SHT31;74464;42.688;23.304;2023-12-20T12:27:57;3.73;76.96
84296;SHT31;74464;42.688;23.304;2023-12-20T12:30:24;3.56;77.14
84296;SHT31;74464;42.688;23.304;2023-12-20T12:32:52;3.42;77.93
84296;SHT31;74464;42.688;23.304;2023-12-20T12:35:19;3.37;77.97
84296;SHT31;74464;42.688;23.304;2023-12-20T12:37:45;3.32;78.24
84296;SHT31;74464;42.688;23.304;2023-12-20T12:40:12;3.35;78.33
84296;SHT31;74464;42.688;23.304;2023-12-20T12:42:39;3.27;78.39
84296;SHT31;74464;42.688;23.304;2023-12-20T12:45:06;3.25;79.04
84296;SHT31;74464;42.688;23.304;2023-12-20T12:47:31;3.23;78.77
84296;SHT31;74464;42.688;23.304;2023-12-20T12:49:58;3.20;79.23
84296;SHT31;74464;42.688;23.304;2023-12-20T12:52:23;3.13;79.38
84296;SHT31;74464;42.688;23.304;2023-12-20T12:54:49;3.12;79.47
84296;SHT31;74464;42.688;23.304;2023-12-20T12:57:15;3.08;79.50
84296;SHT31;74464;42.688;23.304;2023-12-20T12:59:42;3.11;79.88
84296;SHT31;74464;42.688;23.304;2023-12-20T13:02:09;3.16;79.86
84296;SHT31;74464;42.688;23.304;2023-12-20T13:04:35;3.08;80.23
84296;SHT31;74464;42.688;23.304;2023-12-20T13:07:01;3.08;80.14
84296;SHT31;74464;42.688;23.304;2023-12-20T13:09:27;3.22;79.95
84296;SHT31;74464;42.688;23.304;2023-12-20T13:11:53;3.04;80.52
84296;SHT31;74464;42.688;23.304;2023-12-20T13:14:19;3.11;80.22
84296;SHT31;74464;42.688;23.304;2023-12-20T13:16:44;3.18;80.09
84296;SHT31;74464;42.688;23.304;2023-12-20T13:19:11;2.98;80.87
84296;SHT31;74464;42.688;23.304;2023-12-20T13:21:36;2.94;81.03
84296;SHT31;74464;42.688;23.304;2023-12-20T13:24:03;2.98;80.95
84296;SHT31;74464;42.688;23.304;2023-12-20T13:26:28;3.07;80.67
84296;SHT31;74464;42.688;23.304;2023-12-20T13:28:54;2.95;81.08
84296;SHT31;74464;42.688;23.304;2023-12-20T13:31:20;2.97;81.28
84296;SHT31;74464;42.688;23.304;2023-12-20T13:33:47;3.05;80.92
84296;SHT31;74464;42.688;23.304;2023-12-20T13:36:13;2.83;81.21
84296;SHT31;74464;42.688;23.304;2023-12-20T13:38:39;2.71;81.67
84296;SHT31;74464;42.688;23.304;2023-12-20T13:41:06;2.76;81.75
84296;SHT31;74464;42.688;23.304;2023-12-20T13:43:32;2.81;81.55
84296;SHT31;74464;42.688;23.304;2023-12-20T13:45:58;2.67;82.01
84296;SHT31;74464;42.688;23.304;2023-12-20T13:48:24;2.63;82.29
84296;SHT31;74464;42.688;23.304;2023-12-20T13:50:50;2.58;82.28
84296;SHT31;74464;42.688;23.304;2023-12-20T13:53:17;2.56;82.35
84296;SHT31;74464;42.688;23.304;2023-12-20T13:55:44;2.49;82.72
84296;SHT31;74464;42.688;23.304;2023-12-20T13:58:10;2.40;82.95
84296;SHT31;74464;42.688;23.304;2023-12-20T14:00:36;2.28;83.55
84296;SHT31;74464;42.688;23.304;2023-12-20T14:03:07;2.12;84.24
84296;SHT31;74464;42.688;23.304;2023-12-20T14:05:35;2.01;84.71
84296;SHT31;74464;42.688;23.304;2023-12-20T14:08:01;1.85;85.48
84296;SHT31;74464;42.688;23.304;2023-12-20T14:10:27;1.75;85.84
84296;SHT31;74464;42.688;23.304;2023-12-20T14:12:54;1.73;86.22
84296;SHT31;74464;42.688;23.304;2023-12-20T14:15:19;1.71;86.52
84296;SHT31;74464;42.688;23.304;2023-12-20T14:17:45;1.78;86.26
84296;SHT31;74464;42.688;23.304;2023-12-20T14:20:11;1.60;86.74
84296;SHT31;74464;42.688;23.304;2023-12-20T14:22:40;1.50;86.71
84296;SHT31;74464;42.688;23.304;2023-12-20T14:25:12;1.47;87.81
84296;SHT31;74464;42.688;23.304;2023-12-20T14:27:41;1.21;88.41
84296;SHT31;74464;42.688;23.304;2023-12-20T14:30:09;1.42;88.20
84296;SHT31;74464;42.688;23.304;2023-12-20T14:32:35;1.18;89.05
84296;SHT31;74464;42.688;23.304;2023-12-20T14:35:05;1.32;88.45
84296;SHT31;74464;42.688;23.304;2023-12-20T14:37:32;1.21;88.86
84296;SHT31;74464;42.688;23.304;2023-12-20T14:39:57;1.19;88.82
84296;SHT31;74464;42.688;23.304;2023-12-20T14:42:23;0.95;90.01
84296;SHT31;74464;42.688;23.304;2023-12-20T14:44:49;0.97;90.09
84296;SHT31;74464;42.688;23.304;2023-12-20T14:47:16;0.85;90.52
84296;SHT31;74464;42.688;23.304;2023-12-20T14:49:42;1.05;90.31
84296;SHT31;74464;42.688;23.304;2023-12-20T14:52:08;0.95;89.92
84296;SHT31;74464;42.688;23.304;2023-12-20T14:54:37;1.05;89.52
84296;SHT31;74464;42.688;23.304;2023-12-20T14:57:03;0.66;90.75
84296;SHT31;74464;42.688;23.304;2023-12-20T14:59:30;0.54;91.51
84296;SHT31;74464;42.688;23.304;2023-12-20T15:01:56;0.52;91.78
84296;SHT31;74464;42.688;23.304;2023-12-20T15:04:22;0.67;91.26
84296;SHT31;74464;42.688;23.304;2023-12-20T15:06:54;0.63;91.24
84296;SHT31;74464;42.688;23.304;2023-12-20T15:09:20;0.74;91.02
84296;SHT31;74464;42.688;23.304;2023-12-20T15:11:46;0.88;90.37
84296;SHT31;74464;42.688;23.304;2023-12-20T15:14:13;0.92;89.92
84296;SHT31;74464;42.688;23.304;2023-12-20T15:16:45;0.84;89.94
84296;SHT31;74464;42.688;23.304;2023-12-20T15:19:14;0.97;89.78
84296;SHT31;74464;42.688;23.304;2023-12-20T15:21:40;1.11;89.36
84296;SHT31;74464;42.688;23.304;2023-12-20T15:24:13;1.11;89.28
84296;SHT31;74464;42.688;23.304;2023-12-20T15:26:43;1.15;89.24
84296;SHT31;74464;42.688;23.304;2023-12-20T15:29:10;1.21;88.88
84296;SHT31;74464;42.688;23.304;2023-12-20T15:31:42;1.28;88.40